createdAt,value
2019-01-30T00:01:50.932Z,8.30
2019-01-30T00:05:55.993Z,8.07
2019-01-30T00:10:01.142Z,8.30
2019-01-30T00:14:07.310Z,8.50
2019-01-30T00:18:13.403Z,8.70
2019-01-30T00:22:18.503Z,8.37
2019-01-30T00:26:23.573Z,8.63
2019-01-30T00:30:28.948Z,9.57
2019-01-30T00:34:34.030Z,8.83
2019-01-30T00:38:39.104Z,10.07
2019-01-30T00:42:44.222Z,9.60
2019-01-30T00:46:49.272Z,9.47
2019-01-30T00:50:54.404Z,9.63
2019-01-30T00:54:59.412Z,10.33
2019-01-30T00:59:04.479Z,10.53
2019-01-30T01:03:09.622Z,10.70
2019-01-30T01:07:14.737Z,11.17
2019-01-30T01:11:39.050Z,10.83
2019-01-30T01:15:50.055Z,11.40
2019-01-30T01:19:55.256Z,10.83
2019-01-30T01:24:00.354Z,11.93
2019-01-30T01:28:44.864Z,11.10
2019-01-30T01:37:25.519Z,12.33
2019-01-30T01:41:30.613Z,11.33
2019-01-30T01:45:35.675Z,11.60
2019-01-30T01:49:40.792Z,11.50
2019-01-30T01:54:04.956Z,11.17
2019-01-30T01:58:10.019Z,11.45
2019-01-30T02:02:15.151Z,10.87
2019-01-30T02:06:20.183Z,10.63
2019-01-30T02:10:25.488Z,10.30
2019-01-30T02:14:30.725Z,10.97
2019-01-30T02:18:35.859Z,10.47
2019-01-30T02:22:40.870Z,9.87
2019-01-30T02:26:45.940Z,10.33
2019-01-30T02:30:51.043Z,10.73
2019-01-30T02:34:56.195Z,10.50
2019-01-30T02:39:01.282Z,10.43
2019-01-30T02:43:07.970Z,10.70
2019-01-30T02:47:12.926Z,10.27
2019-01-30T02:51:17.997Z,10.17
2019-01-30T02:55:23.059Z,10.50
2019-01-30T02:59:28.180Z,10.27
2019-01-30T03:03:33.292Z,9.63
2019-01-30T03:07:57.358Z,9.93
2019-01-30T03:16:18.898Z,10.67
2019-01-30T03:20:25.696Z,9.57
2019-01-30T03:24:30.715Z,9.90
2019-01-30T03:28:35.850Z,9.87
2019-01-30T03:37:10.426Z,9.50
2019-01-30T03:41:34.612Z,10.20
2019-01-30T03:45:40.330Z,9.43
2019-01-30T03:49:45.372Z,9.03
2019-01-30T03:53:50.398Z,8.70
2019-01-30T03:57:55.355Z,9.37
2019-01-30T04:02:00.446Z,9.17
2019-01-30T04:06:05.711Z,8.43
2019-01-30T04:10:13.081Z,8.77
2019-01-30T04:14:18.154Z,9.10
2019-01-30T04:18:23.284Z,8.43
2019-01-30T04:22:28.408Z,7.63
2019-01-30T04:26:33.505Z,8.03
2019-01-30T04:30:38.564Z,7.50
2019-01-30T04:34:43.596Z,8.10
2019-01-30T04:38:48.649Z,8.23
2019-01-30T04:42:53.652Z,8.47
2019-01-30T04:46:58.677Z,7.90
2019-01-30T04:51:03.725Z,8.07
2019-01-30T04:55:09.953Z,8.47
2019-01-30T05:07:40.162Z,7.10
2019-01-30T05:11:45.320Z,7.83
2019-01-30T05:20:26.162Z,8.03
2019-01-30T05:24:31.232Z,8.03
2019-01-30T05:28:36.261Z,7.30
2019-01-30T05:32:41.788Z,7.13
2019-01-30T05:37:05.872Z,7.27
2019-01-30T05:41:10.930Z,7.77
2019-01-30T05:50:12.660Z,7.23
2019-01-30T05:54:37.072Z,6.93
2019-01-30T06:03:44.290Z,7.40
2019-01-30T06:08:08.418Z,7.43
2019-01-30T06:12:32.586Z,7.30
2019-01-30T06:21:13.717Z,7.00
2019-01-30T06:30:01.928Z,6.90
2019-01-30T06:34:07.988Z,8.13
2019-01-30T06:38:13.056Z,7.50
2019-01-30T06:42:18.096Z,7.73
2019-01-30T06:46:23.297Z,8.23
2019-01-30T06:50:28.418Z,7.37
2019-01-30T06:54:34.412Z,11.40
2019-01-30T06:58:39.459Z,7.83
2019-01-30T07:07:01.204Z,8.83
2019-01-30T07:11:25.588Z,6.50
2019-01-30T07:15:49.725Z,7.57
2019-01-30T07:20:13.861Z,7.40
2019-01-30T07:24:37.921Z,7.13
2019-01-30T07:32:59.641Z,7.80
2019-01-30T07:37:23.783Z,7.10
2019-01-30T07:42:07.067Z,7.13
2019-01-30T07:46:23.590Z,6.53
2019-01-30T07:55:04.304Z,7.33
2019-01-30T07:59:21.306Z,7.77
2019-01-30T08:03:26.381Z,6.90
2019-01-30T08:07:31.462Z,6.87
2019-01-30T08:11:36.502Z,7.83
2019-01-30T08:15:42.489Z,9.40
2019-01-30T08:19:47.517Z,13.10
2019-01-30T08:23:52.566Z,14.73
2019-01-30T08:27:58.132Z,14.83
2019-01-30T08:32:03.262Z,17.40
2019-01-30T08:36:08.290Z,16.83
2019-01-30T08:40:13.447Z,18.60
2019-01-30T08:44:18.662Z,20.97
2019-01-30T08:48:23.818Z,17.97
2019-01-30T08:52:28.866Z,20.97
2019-01-30T08:56:38.902Z,20.90
2019-01-30T09:00:40.736Z,20.27
2019-01-30T09:04:45.840Z,21.20
2019-01-30T09:08:50.931Z,22.90
2019-01-30T09:12:57.299Z,23.93
2019-01-30T09:17:02.405Z,23.10
2019-01-30T09:21:07.411Z,24.63
2019-01-30T09:25:14.775Z,22.43
2019-01-30T09:29:19.724Z,22.47
2019-01-30T09:33:26.390Z,22.37
2019-01-30T09:37:31.628Z,23.27
2019-01-30T09:41:36.592Z,20.23
2019-01-30T09:45:41.648Z,21.60
2019-01-30T09:49:46.810Z,22.33
2019-01-30T09:53:51.810Z,20.57
2019-01-30T09:57:56.823Z,23.17
2019-01-30T10:02:01.851Z,22.33
2019-01-30T10:06:06.994Z,23.30
2019-01-30T10:10:15.408Z,21.93
2019-01-30T10:14:20.521Z,24.30
2019-01-30T10:18:25.579Z,20.17
2019-01-30T10:22:30.832Z,21.60
2019-01-30T10:26:35.794Z,20.87
2019-01-30T10:30:43.497Z,22.87
2019-01-30T10:34:48.478Z,18.80
2019-01-30T10:38:53.543Z,21.93
2019-01-30T10:42:58.656Z,20.63
2019-01-30T10:47:03.685Z,22.37
2019-01-30T10:51:08.710Z,19.53
2019-01-30T10:55:16.493Z,21.97
2019-01-30T10:59:21.520Z,21.03
2019-01-30T11:03:26.569Z,22.37
2019-01-30T11:07:31.580Z,22.63
2019-01-30T11:11:36.638Z,22.33
2019-01-30T11:15:41.770Z,23.70
2019-01-30T11:19:46.817Z,23.17
2019-01-30T11:23:51.953Z,25.37
2019-01-30T11:27:57.005Z,24.83
2019-01-30T11:32:02.100Z,22.43
2019-01-30T11:36:07.132Z,20.57
2019-01-30T11:40:13.466Z,24.60
2019-01-30T11:44:18.487Z,19.48
2019-01-30T11:48:23.425Z,20.03
2019-01-30T11:52:28.565Z,18.93
2019-01-30T11:56:33.596Z,21.97
2019-01-30T12:00:42.580Z,22.07
2019-01-30T12:04:47.541Z,24.07
2019-01-30T12:08:52.660Z,20.73
2019-01-30T12:12:57.678Z,25.37
2019-01-30T12:17:02.708Z,24.27
2019-01-30T12:21:07.745Z,23.67
2019-01-30T12:25:14.217Z,23.27
2019-01-30T12:29:19.472Z,25.47
2019-01-30T12:33:24.514Z,20.83
2019-01-30T12:37:29.559Z,23.27
2019-01-30T12:41:35.801Z,24.33
2019-01-30T12:45:40.989Z,17.93
2019-01-30T12:49:46.030Z,19.83
2019-01-30T12:53:51.091Z,20.33
2019-01-30T12:57:56.257Z,20.50
2019-01-30T13:02:01.297Z,32.07
2019-01-30T13:06:06.568Z,31.27
2019-01-30T13:10:11.667Z,22.57
2019-01-30T13:14:16.732Z,27.80
2019-01-30T13:18:21.749Z,23.47
2019-01-30T13:22:26.763Z,26.00
2019-01-30T13:26:31.848Z,28.40
2019-01-30T13:30:43.618Z,29.33
2019-01-30T13:34:49.039Z,30.30
2019-01-30T13:38:54.372Z,29.73
2019-01-30T13:42:59.502Z,30.47
2019-01-30T13:47:04.507Z,27.10
2019-01-30T13:51:11.342Z,28.73
2019-01-30T13:55:16.372Z,25.93
2019-01-30T13:59:21.484Z,22.10
2019-01-30T14:03:26.498Z,23.43
2019-01-30T14:07:31.512Z,27.87
2019-01-30T14:11:36.560Z,24.40
2019-01-30T14:15:41.585Z,25.87
2019-01-30T14:19:46.631Z,26.73
2019-01-30T14:23:51.595Z,26.80
2019-01-30T14:27:56.646Z,23.83
2019-01-30T14:32:01.674Z,24.70
2019-01-30T14:36:06.711Z,25.00
2019-01-30T14:40:12.696Z,24.17
2019-01-30T14:44:17.811Z,28.70
2019-01-30T14:48:22.807Z,26.33
2019-01-30T14:52:27.844Z,26.90
2019-01-30T14:56:32.860Z,26.50
2019-01-30T15:00:37.949Z,27.87
2019-01-30T15:04:42.968Z,27.10
2019-01-30T15:08:48.043Z,28.60
2019-01-30T15:12:53.051Z,30.97
2019-01-30T15:16:58.093Z,30.90
2019-01-30T15:21:03.033Z,32.73
2019-01-30T15:25:09.044Z,32.23
2019-01-30T15:29:14.042Z,38.67
2019-01-30T15:33:20.018Z,34.23
2019-01-30T15:37:25.057Z,31.43
2019-01-30T15:41:30.098Z,29.87
2019-01-30T15:45:35.276Z,29.93
2019-01-30T15:49:40.251Z,32.40
2019-01-30T15:53:45.287Z,33.23
2019-01-30T15:57:53.105Z,37.43
2019-01-30T16:01:58.261Z,41.83
2019-01-30T16:06:14.882Z,45.43
2019-01-30T16:10:20.652Z,41.83
2019-01-30T16:14:26.688Z,45.17
2019-01-30T16:18:31.751Z,48.73
2019-01-30T16:22:36.825Z,47.73
2019-01-30T16:26:41.987Z,45.37
2019-01-30T16:30:47.164Z,51.77
2019-01-30T16:34:52.283Z,49.10
2019-01-30T16:38:57.495Z,53.40
2019-01-30T16:43:02.703Z,59.27
2019-01-30T16:47:26.945Z,49.70
2019-01-30T16:51:32.032Z,51.83
2019-01-30T16:55:37.996Z,49.60
2019-01-30T16:59:49.466Z,46.73
2019-01-30T17:03:54.579Z,54.87
2019-01-30T17:08:18.704Z,53.07
2019-01-30T17:16:40.525Z,49.33
2019-01-30T17:20:45.602Z,50.23
2019-01-30T17:24:50.720Z,44.73
2019-01-30T17:28:55.722Z,42.67
2019-01-30T17:33:00.900Z,42.13
2019-01-30T17:37:06.293Z,40.87
2019-01-30T17:41:11.361Z,39.50
2019-01-30T17:45:16.641Z,39.33
2019-01-30T17:49:21.681Z,38.23
2019-01-30T17:53:26.834Z,40.67
2019-01-30T17:57:31.976Z,36.33
2019-01-30T18:01:37.157Z,33.80
2019-01-30T18:05:42.277Z,40.60
2019-01-30T18:09:47.354Z,49.77
2019-01-30T18:13:52.413Z,38.17
2019-01-30T18:17:57.640Z,43.93
2019-01-30T18:22:03.029Z,34.03
2019-01-30T18:26:09.054Z,32.47
2019-01-30T18:30:16.374Z,34.03
2019-01-30T18:34:22.621Z,29.67
2019-01-30T18:38:27.757Z,31.00
2019-01-30T18:42:32.920Z,27.30
2019-01-30T18:46:38.045Z,27.60
2019-01-30T18:50:45.866Z,27.30
2019-01-30T18:54:50.629Z,26.37
2019-01-30T18:58:55.745Z,24.97
2019-01-30T19:03:02.270Z,23.87
2019-01-30T19:07:07.503Z,25.40
2019-01-30T19:11:12.650Z,27.23
2019-01-30T19:15:19.557Z,26.37
2019-01-30T19:19:24.988Z,26.77
2019-01-30T19:23:30.146Z,27.47
2019-01-30T19:27:35.255Z,23.23
2019-01-30T19:31:40.318Z,26.50
2019-01-30T19:35:45.520Z,27.43
2019-01-30T19:39:50.567Z,24.47
2019-01-30T19:43:55.964Z,25.13
2019-01-30T19:48:01.243Z,24.17
2019-01-30T19:52:07.309Z,24.43
2019-01-30T19:56:12.667Z,21.33
2019-01-30T20:00:23.375Z,36.33
2019-01-30T20:04:28.626Z,21.50
2019-01-30T20:08:34.086Z,24.90
2019-01-30T20:12:39.207Z,26.33
2019-01-30T20:16:44.299Z,29.00
2019-01-30T20:20:49.509Z,29.23
2019-01-30T20:24:54.744Z,31.05
2019-01-30T20:29:00.083Z,31.67
2019-01-30T20:33:05.727Z,33.37
2019-01-30T20:37:11.056Z,30.37
2019-01-30T20:41:16.302Z,30.90
2019-01-30T20:45:33.063Z,32.43
2019-01-30T20:49:28.237Z,29.80
2019-01-30T20:53:33.348Z,30.97
2019-01-30T20:57:38.534Z,35.37
2019-01-30T21:01:43.614Z,36.43
2019-01-30T21:05:49.089Z,36.40
2019-01-30T21:09:54.243Z,30.63
2019-01-30T21:13:59.216Z,29.13
2019-01-30T21:18:04.285Z,25.67
2019-01-30T21:22:09.700Z,20.87
2019-01-30T21:26:14.773Z,19.63
2019-01-30T21:30:31.426Z,20.73
2019-01-30T21:34:36.333Z,18.73
2019-01-30T21:38:41.459Z,19.80
2019-01-30T21:42:46.812Z,18.60
2019-01-30T21:46:51.811Z,24.87
2019-01-30T21:50:56.829Z,21.70
2019-01-30T21:55:01.799Z,21.33
2019-01-30T21:59:06.906Z,18.27
2019-01-30T22:03:12.002Z,18.67
2019-01-30T22:07:17.283Z,19.63
2019-01-30T22:11:22.400Z,17.97
2019-01-30T22:15:27.524Z,17.33
2019-01-30T22:19:32.564Z,18.03
2019-01-30T22:23:37.599Z,18.20
2019-01-30T22:27:42.623Z,16.30
2019-01-30T22:31:47.634Z,16.70
2019-01-30T22:35:52.650Z,16.47
2019-01-30T22:39:57.653Z,16.03
2019-01-30T22:44:02.648Z,14.17
2019-01-30T22:48:07.776Z,13.33
2019-01-30T22:52:12.685Z,13.60
2019-01-30T22:56:17.754Z,13.13
2019-01-30T23:00:31.008Z,13.97
2019-01-30T23:05:04.185Z,13.15
2019-01-30T23:09:47.588Z,13.47
2019-01-30T23:13:56.721Z,14.40
2019-01-30T23:18:35.193Z,13.83
2019-01-30T23:23:29.111Z,13.77
2019-01-30T23:27:49.655Z,14.57
2019-01-30T23:32:00.243Z,13.90
2019-01-30T23:36:38.848Z,14.70
2019-01-30T23:40:51.934Z,14.47
2019-01-30T23:45:13.707Z,14.80
2019-01-30T23:49:54.347Z,14.30
2019-01-30T23:54:24.183Z,14.00
2019-01-30T23:58:58.645Z,13.93
